Strona główna
METAR-TAF:

METAR-TAF

Lotnisko :

Le Luc, Francja

Szerokość geograficzna: 43-23N, Długość geograficzna: 006-23E, wysokość: 80 m

Aktualna obserwacja pogody

Raport powstał 42 minut temu, godzina 11:00 UTC
Wiatr 3 kt z kierunków zmiennych
Temperatura 31°C
Wilgotność 36%
Ciśnienie 1011 hPa
Widzialność 10 km lub więcej

METAR: LFMC 181100Z AUTO VRB03KT 9999 ////// 31/14 Q1011

czas: 13:42 (11:42 UTC)


TAF: brakujący

Obserwacja i prognoza pogody dla ponad 4000 lotnisk (raport METAR i TAF).

Dostępne stacje oznaczono żółtymi i czerwonymi punktami na mapie.

Najedź kursorem aby zobaczyć nazwę stacji.

Kliknij aby zobaczyć obserwacje i prognozy pogody.

Aby zmienić mapę: kliknij na zielony przycisk z czarnym krzyżykiem, aby powiększyć; na zielony przycisk z myślnikiem, aby pomniejszyć; na zielone strzałki, aby przejść do map sąsiednich.


METAR-TAF: